Buoy 56564

sailwx.info

Track history (hours):
 
Tides and Currents Weather Stations Pressure Air Temp Water Temp Dewpoint Dewpoint Depression Visibility Wind Speed Wind Dir Waves Ship Positions

Drifting buoy 56564

Last reported at 2017-Jul-25 18:30 UTC. Time now 2017-Jul-25 20:42 UTC.
Position S 22°20' E 058°41'.

Barometer 1019.4 mb
Water temperature 23.9 ° C

Date/timePositionNaut miles runAvg speedWind from/ knotsBaromVisibWave heightAir tempDewpointWater temp
2017-Jul-25 18:30S 22°20' E 058°41'2 1.7 1019.4 23.9
2017-Jul-25 17:30S 22°20' E 058°43'1 0.8 1019.3 23.9
2017-Jul-25 16:30S 22°21' E 058°42'1 0.8 1019.1 23.9
2017-Jul-25 15:30S 22°22' E 058°43'0 0.0 1018.7 23.9
2017-Jul-25 14:30S 22°22' E 058°43'1 0.6 1018.2 23.9
2017-Jul-25 13:30S 22°22' E 058°43'1 0.8 1017.7 23.9
2017-Jul-25 12:30S 22°22' E 058°44'1 0.8 1017.4 23.9
2017-Jul-25 11:30S 22°23' E 058°44'1 0.6 1017.3 23.9
2017-Jul-25 10:30S 22°22' E 058°44'3 0.7 1017.1 24.0
2017-Jul-25 05:30S 22°24' E 058°47'0 0.0 1019.6 23.8
2017-Jul-25 04:30S 22°24' E 058°47'0 0.0 1019.4 23.8
2017-Jul-25 03:30S 22°24' E 058°47'1 0.6 1019.2 23.8
2017-Jul-25 02:30S 22°24' E 058°48'1 0.6 1018.8 23.8
2017-Jul-25 01:30S 22°24' E 058°49'1 0.6 1018.5 23.8
2017-Jul-25 00:30S 22°24' E 058°49'1 0.8 1018.4 23.8
2017-Jul-24 23:30S 22°25' E 058°50'2 1.0 1018.6 23.8
2017-Jul-24 21:30S 22°23' E 058°52'1 0.2 1019.3 23.8
2017-Jul-24 18:30S 22°24' E 058°52'1 0.6 1020.1 23.8
2017-Jul-24 17:30S 22°24' E 058°52'1 0.8 1020.3 23.8
2017-Jul-24 16:30S 22°23' E 058°53'1 0.6 1020.3 23.8
2017-Jul-24 15:30S 22°24' E 058°53'1 1.1 1019.9 23.9
2017-Jul-24 14:30S 22°24' E 058°54'0 0.0 1019.5 23.9
2017-Jul-24 13:30S 22°24' E 058°54'2 1.7 1019.3 23.9
2017-Jul-24 12:30S 22°24' E 058°56'0 0.0 1019.1 23.9
2017-Jul-24 11:30S 22°24' E 058°56'0 0.0 1019.0 24.0
2017-Jul-24 10:30S 22°24' E 058°56'3 0.6 1019.0 24.0
2017-Jul-24 06:30S 22°25' E 058°58'1 0.8 1022.0 23.9
2017-Jul-24 05:30S 22°26' E 058°59'1 0.8 1022.6 23.9
2017-Jul-24 04:30S 22°26' E 058°59'0 0.0 1022.5 23.8
2017-Jul-24 03:30S 22°26' E 058°59'1 0.6 1021.9 23.8
2017-Jul-24 02:30S 22°26' E 059°00'1 0.8 1021.5 23.8
2017-Jul-24 01:30S 22°27' E 059°01'1 0.6 1021.2 23.8
2017-Jul-24 00:30S 22°26' E 059°01'0 0.0 1020.9 23.8
2017-Jul-23 23:30S 22°26' E 059°01'1 0.6 1021.3 23.8
2017-Jul-23 21:30S 22°27' E 059°02'2 0.6 1022.2 23.9
2017-Jul-23 18:30S 22°29' E 059°02'0 0.0 1023.1 23.9
2017-Jul-23 17:30S 22°29' E 059°02'1 0.8 1023.2 24.0
2017-Jul-23 16:30S 22°29' E 059°02'1 0.6 1023.0 24.0
2017-Jul-23 15:30S 22°30' E 059°02'1 0.6 1022.5 24.0
2017-Jul-23 14:30S 22°29' E 059°02'0 0.0 1022.0 24.0
2017-Jul-23 13:30S 22°29' E 059°02'0 0.0 1021.7 24.0
2017-Jul-23 12:30S 22°29' E 059°02'1 0.6 1021.4 24.0
2017-Jul-23 10:30S 22°29' E 059°04'3 0.7 1021.0 24.0
2017-Jul-23 06:30S 22°31' E 059°05'1 0.8 1023.6 24.0
2017-Jul-23 05:30S 22°32' E 059°05'1 1.3 1023.7 23.9
2017-Jul-23 04:30S 22°32' E 059°06'1 0.6 1023.4 23.9
2017-Jul-23 03:30S 22°33' E 059°06'0 0.0 1022.9 23.8
2017-Jul-23 02:30S 22°33' E 059°06'1 0.6 1022.5 23.8
2017-Jul-23 01:30S 22°33' E 059°07'1 0.8 1021.8 23.8
2017-Jul-23 00:30S 22°34' E 059°07'1 1.3 1021.6 23.8
2017-Jul-22 23:30S 22°34' E 059°08'0 0.0 1021.8 23.9
2017-Jul-22 22:30S 22°34' E 059°08'2 0.5 1022.1 23.9
2017-Jul-22 17:30S 22°36' E 059°10'1 0.6 1022.6 24.0
2017-Jul-22 16:30S 22°36' E 059°11'1 0.6 1022.4 24.0
2017-Jul-22 15:30S 22°37' E 059°11'0 0.0 1022.2 24.0
2017-Jul-22 14:30S 22°37' E 059°11'0 0.0 1021.8 24.0
2017-Jul-22 13:30S 22°37' E 059°11'1 0.8 1021.4 24.2
2017-Jul-22 12:30S 22°36' E 059°11'1 0.8 1021.0 24.2
2017-Jul-22 11:30S 22°37' E 059°12'1 0.6 1020.4 24.3
2017-Jul-22 10:30S 22°37' E 059°13'1 0.3 1020.3 24.3
2017-Jul-22 05:30S 22°37' E 059°14'1 0.8 1022.9 23.9
2017-Jul-22 04:30S 22°38' E 059°14'1 0.6 1022.4 23.9
2017-Jul-22 03:30S 22°38' E 059°14'1 0.6 1021.8 23.8
2017-Jul-22 02:30S 22°38' E 059°14'0 0.0 1021.2 23.8
2017-Jul-22 01:30S 22°38' E 059°14'1 0.6 1020.7 23.8
2017-Jul-22 00:30S 22°39' E 059°14'0 0.0 1020.3 23.8
2017-Jul-21 23:30S 22°39' E 059°14'0 0.0 1020.3 23.8
2017-Jul-21 22:30S 22°39' E 059°14'1 0.3 1020.3 23.8
2017-Jul-21 17:30S 22°40' E 059°13'2 1.6 1021.4 24.0
2017-Jul-21 16:30S 22°41' E 059°14'2 1.8 1021.1 24.0
2017-Jul-21 15:30S 22°41' E 059°13'0 0.0 1020.8 24.0
2017-Jul-21 14:30S 22°41' E 059°13'1 0.6 1020.2 24.0
2017-Jul-21 13:30S 22°41' E 059°12'0 0.0 1019.7 24.0
2017-Jul-21 12:30S 22°41' E 059°12'1 0.6 1019.4 24.0
2017-Jul-21 11:30S 22°41' E 059°11'2 0.3 1018.8 24.1
2017-Jul-21 05:30S 22°41' E 059°10'1 0.8 1020.6 23.9
2017-Jul-21 04:30S 22°42' E 059°09'0 0.0 1020.2 23.9
2017-Jul-21 03:30S 22°42' E 059°09'0 0.0 1019.6 23.9
2017-Jul-21 02:30S 22°42' E 059°09'0 0.0 1019.0 23.9
2017-Jul-21 01:30S 22°42' E 059°09'1 0.6 1018.5 23.9
2017-Jul-21 00:30S 22°42' E 059°08'1 0.4 1018.2 23.9
2017-Jul-20 22:30S 22°43' E 059°08'0 0.0 1018.7 23.9
2017-Jul-20 18:30S 22°43' E 059°08'1 0.8 1019.9 23.9
2017-Jul-20 17:30S 22°43' E 059°08'1 1.2 1019.9 23.9
2017-Jul-20 16:30S 22°44' E 059°08'1 0.3 1019.8 23.9
2017-Jul-20 14:30S 22°45' E 059°08'1 1.2 1019.3 23.9
2017-Jul-20 13:30S 22°46' E 059°08'1 0.6 1018.9 23.9
2017-Jul-20 12:30S 22°46' E 059°08'2 1.6 1018.7 23.9
2017-Jul-20 11:30S 22°47' E 059°09'6 1.0 1018.5 24.0
2017-Jul-20 05:30S 22°53' E 059°08'1 1.3 1021.1 23.8
2017-Jul-20 04:30S 22°55' E 059°09'2 1.8 1020.8 23.8
2017-Jul-20 03:30S 22°56' E 059°09'1 1.3 1020.6 23.8
2017-Jul-20 02:30S 22°58' E 059°10'1 1.2 1020.4 23.7
2017-Jul-20 01:30S 22°59' E 059°10'4 1.2 1020.0 23.7
2017-Jul-19 22:30S 23°02' E 059°10'11 1.8 1020.4 23.7
2017-Jul-19 16:30S 23°13' E 059°12'3 3.0 1022.8 23.7
2017-Jul-19 15:30S 23°16' E 059°12'0 0.0 1022.1 23.7
2017-Jul-19 14:30S 23°16' E 059°12'3 3.1 1021.6 23.7
2017-Jul-19 13:30S 23°19' E 059°13'2 2.4 1021.1 23.7
2017-Jul-19 12:30S 23°22' E 059°13'2 2.4 1020.7 23.7
2017-Jul-19 11:30S 23°24' E 059°13'1 0.3 1020.6 23.6
2017-Jul-19 09:30S 23°25' E 059°13'5 1.6 1020.8 23.4
2017-Jul-19 06:30S 23°29' E 059°14'2 2.4 1022.6 23.4
2017-Jul-19 05:30S 23°31' E 059°16'1 1.3 1022.8 23.4
2017-Jul-19 04:30S 23°32' E 059°15'1 0.6 1022.6 23.4
2017-Jul-19 03:30S 23°32' E 059°16'3 2.8 1022.3 23.4
2017-Jul-19 02:30S 23°34' E 059°18'2 1.8 1022.1 23.5
2017-Jul-19 01:30S 23°36' E 059°18'2 1.9 1021.7 23.5
2017-Jul-19 00:30S 23°38' E 059°19'0 0.0 1021.6 23.5
2017-Jul-18 23:30S 23°38' E 059°19'1 1.3 1022.0 23.5
2017-Jul-18 22:30S 23°39' E 059°19'6 1.6 1022.1 23.5
2017-Jul-18 18:30S 23°43' E 059°25'0 0.0 1023.3 23.4
2017-Jul-18 17:30S 23°43' E 059°25'5 1.7 1023.3 23.4
2017-Jul-18 14:30S 23°46' E 059°29'0 0.0 1022.3 23.5
2017-Jul-18 13:30S 23°46' E 059°29'3 1.4 1022.3 23.5
2017-Jul-18 11:30S 23°47' E 059°32'2 2.1 1021.6 23.6
2017-Jul-18 10:30S 23°49' E 059°33'0 0.0 1021.4 23.6
2017-Jul-18 09:30S 23°49' E 059°33'6 1.4 1021.3 23.6
2017-Jul-18 05:30S 23°52' E 059°38'0 0.0 1023.3 23.5
2017-Jul-18 04:30S 23°52' E 059°38'2 1.2 1022.7 23.4
2017-Jul-18 02:30S 23°55' E 059°39'0 0.0 1021.6 23.3
2017-Jul-18 01:30S 23°55' E 059°39'0 0.0 1021.0 23.3
2017-Jul-18 00:30S 23°55' E 059°39'1 0.8 1020.5 23.3
2017-Jul-17 23:30S 23°55' E 059°40'1 0.4 1020.5 23.3
2017-Jul-17 21:30S 23°56' E 059°40'2 0.8 1020.4 23.3
2017-Jul-17 18:30S 23°58' E 059°40'0 0.0 1021.3 23.4
2017-Jul-17 17:30S 23°58' E 059°40'1 0.8 1021.1 23.4
2017-Jul-17 16:30S 23°59' E 059°41'0 0.0 1021.1 23.4
2017-Jul-17 15:30S 23°59' E 059°41'0 0.0 1020.9 23.4
2017-Jul-17 14:30S 23°59' E 059°41'1 0.5 1020.8 23.4
2017-Jul-17 13:30S 23°59' E 059°41'1 0.6 1020.6 23.5
2017-Jul-17 12:30S 23°58' E 059°41'1 1.1 1020.2 23.5
2017-Jul-17 11:30S 23°58' E 059°43'0 0.0 1020.1 23.5
2017-Jul-17 10:30S 23°58' E 059°43'3 0.7 1020.2 23.5
2017-Jul-17 05:30S 23°58' E 059°46'2 0.8 1022.9 23.2
2017-Jul-17 03:30S 23°58' E 059°48'1 0.5 1022.2 23.2
2017-Jul-17 02:30S 23°58' E 059°49'1 0.5 1021.9 23.2
2017-Jul-17 01:30S 23°58' E 059°49'1 0.4 1021.6 23.2
2017-Jul-16 23:30S 23°58' E 059°50'2 0.8 1021.7 23.2
2017-Jul-16 21:30S 23°58' E 059°52'4 0.9 1022.2 23.1
2017-Jul-16 17:30S 23°59' E 059°55'0 0.0 1022.9 23.2
2017-Jul-16 15:30S 23°59' E 059°55'1 1.2 1022.5 22.9
2017-Jul-16 14:30S 24°00' E 059°56'0 0.0 1022.1 22.9
2017-Jul-16 13:30S 24°00' E 059°56'1 1.1 1022.1 22.9
2017-Jul-16 12:30S 24°00' E 059°58'1 0.5 1021.9 22.9
2017-Jul-16 11:30S 24°00' E 059°58'0 0.0 1021.9 22.9
2017-Jul-16 10:30S 24°00' E 059°58'3 0.6 1022.0 22.9
2017-Jul-16 05:30S 23°59' E 060°01'2 1.1 1024.5 22.9
2017-Jul-16 03:30S 24°00' E 060°04'1 1.1 1023.8 22.8
2017-Jul-16 02:30S 24°00' E 060°05'1 0.5 1023.2 22.8
2017-Jul-16 01:30S 24°00' E 060°05'1 1.1 1023.1 22.9
2017-Jul-16 00:30S 24°00' E 060°07'1 0.6 1023.1 22.9
2017-Jul-15 23:30S 24°01' E 060°07'4 1.8 1022.8 22.8
2017-Jul-15 21:30S 24°02' E 060°10'1 0.2 1023.9 22.8
2017-Jul-15 18:30S 24°02' E 060°11'   1024.3 22.8
Track history (hours):
 
Tides and Currents Weather Stations Pressure Air Temp Water Temp Dewpoint Dewpoint Depression Visibility Wind Speed Wind Dir Waves Ship Positions

Drifting buoy 56564

Last reported at 2017-Jul-25 18:30 UTC. Time now 2017-Jul-25 20:42 UTC.
Position S 22°20' E 058°41'.

Barometer 1019.4 mb
Water temperature 23.9 ° C

Date/timePositionNaut miles runAvg speedWind from/ knotsBaromVisibWave heightAir tempDewpointWater temp
2017-Jul-25 18:30S 22°20' E 058°41'2 1.7 1019.4 23.9
2017-Jul-25 17:30S 22°20' E 058°43'1 0.8 1019.3 23.9
2017-Jul-25 16:30S 22°21' E 058°42'1 0.8 1019.1 23.9
2017-Jul-25 15:30S 22°22' E 058°43'0 0.0 1018.7 23.9
2017-Jul-25 14:30S 22°22' E 058°43'1 0.6 1018.2 23.9
2017-Jul-25 13:30S 22°22' E 058°43'1 0.8 1017.7 23.9
2017-Jul-25 12:30S 22°22' E 058°44'1 0.8 1017.4 23.9
2017-Jul-25 11:30S 22°23' E 058°44'1 0.6 1017.3 23.9
2017-Jul-25 10:30S 22°22' E 058°44'3 0.7 1017.1 24.0
2017-Jul-25 05:30S 22°24' E 058°47'0 0.0 1019.6 23.8
2017-Jul-25 04:30S 22°24' E 058°47'0 0.0 1019.4 23.8
2017-Jul-25 03:30S 22°24' E 058°47'1 0.6 1019.2 23.8
2017-Jul-25 02:30S 22°24' E 058°48'1 0.6 1018.8 23.8
2017-Jul-25 01:30S 22°24' E 058°49'1 0.6 1018.5 23.8
2017-Jul-25 00:30S 22°24' E 058°49'1 0.8 1018.4 23.8
2017-Jul-24 23:30S 22°25' E 058°50'2 1.0 1018.6 23.8
2017-Jul-24 21:30S 22°23' E 058°52'1 0.2 1019.3 23.8
2017-Jul-24 18:30S 22°24' E 058°52'1 0.6 1020.1 23.8
2017-Jul-24 17:30S 22°24' E 058°52'1 0.8 1020.3 23.8
2017-Jul-24 16:30S 22°23' E 058°53'1 0.6 1020.3 23.8
2017-Jul-24 15:30S 22°24' E 058°53'1 1.1 1019.9 23.9
2017-Jul-24 14:30S 22°24' E 058°54'0 0.0 1019.5 23.9
2017-Jul-24 13:30S 22°24' E 058°54'2 1.7 1019.3 23.9
2017-Jul-24 12:30S 22°24' E 058°56'0 0.0 1019.1 23.9
2017-Jul-24 11:30S 22°24' E 058°56'0 0.0 1019.0 24.0
2017-Jul-24 10:30S 22°24' E 058°56'3 0.6 1019.0 24.0
2017-Jul-24 06:30S 22°25' E 058°58'1 0.8 1022.0 23.9
2017-Jul-24 05:30S 22°26' E 058°59'1 0.8 1022.6 23.9
2017-Jul-24 04:30S 22°26' E 058°59'0 0.0 1022.5 23.8
2017-Jul-24 03:30S 22°26' E 058°59'1 0.6 1021.9 23.8
2017-Jul-24 02:30S 22°26' E 059°00'1 0.8 1021.5 23.8
2017-Jul-24 01:30S 22°27' E 059°01'1 0.6 1021.2 23.8
2017-Jul-24 00:30S 22°26' E 059°01'0 0.0 1020.9 23.8
2017-Jul-23 23:30S 22°26' E 059°01'1 0.6 1021.3 23.8
2017-Jul-23 21:30S 22°27' E 059°02'2 0.6 1022.2 23.9
2017-Jul-23 18:30S 22°29' E 059°02'0 0.0 1023.1 23.9
2017-Jul-23 17:30S 22°29' E 059°02'1 0.8 1023.2 24.0
2017-Jul-23 16:30S 22°29' E 059°02'1 0.6 1023.0 24.0
2017-Jul-23 15:30S 22°30' E 059°02'1 0.6 1022.5 24.0
2017-Jul-23 14:30S 22°29' E 059°02'0 0.0 1022.0 24.0
2017-Jul-23 13:30S 22°29' E 059°02'0 0.0 1021.7 24.0
2017-Jul-23 12:30S 22°29' E 059°02'1 0.6 1021.4 24.0
2017-Jul-23 10:30S 22°29' E 059°04'3 0.7 1021.0 24.0
2017-Jul-23 06:30S 22°31' E 059°05'1 0.8 1023.6 24.0
2017-Jul-23 05:30S 22°32' E 059°05'1 1.3 1023.7 23.9
2017-Jul-23 04:30S 22°32' E 059°06'1 0.6 1023.4 23.9
2017-Jul-23 03:30S 22°33' E 059°06'0 0.0 1022.9 23.8
2017-Jul-23 02:30S 22°33' E 059°06'1 0.6 1022.5 23.8
2017-Jul-23 01:30S 22°33' E 059°07'1 0.8 1021.8 23.8
2017-Jul-23 00:30S 22°34' E 059°07'1 1.3 1021.6 23.8
2017-Jul-22 23:30S 22°34' E 059°08'0 0.0 1021.8 23.9
2017-Jul-22 22:30S 22°34' E 059°08'2 0.5 1022.1 23.9
2017-Jul-22 17:30S 22°36' E 059°10'1 0.6 1022.6 24.0
2017-Jul-22 16:30S 22°36' E 059°11'1 0.6 1022.4 24.0
2017-Jul-22 15:30S 22°37' E 059°11'0 0.0 1022.2 24.0
2017-Jul-22 14:30S 22°37' E 059°11'0 0.0 1021.8 24.0
2017-Jul-22 13:30S 22°37' E 059°11'1 0.8 1021.4 24.2
2017-Jul-22 12:30S 22°36' E 059°11'1 0.8 1021.0 24.2
2017-Jul-22 11:30S 22°37' E 059°12'1 0.6 1020.4 24.3
2017-Jul-22 10:30S 22°37' E 059°13'1 0.3 1020.3 24.3
2017-Jul-22 05:30S 22°37' E 059°14'1 0.8 1022.9 23.9
2017-Jul-22 04:30S 22°38' E 059°14'1 0.6 1022.4 23.9
2017-Jul-22 03:30S 22°38' E 059°14'1 0.6 1021.8 23.8
2017-Jul-22 02:30S 22°38' E 059°14'0 0.0 1021.2 23.8
2017-Jul-22 01:30S 22°38' E 059°14'1 0.6 1020.7 23.8
2017-Jul-22 00:30S 22°39' E 059°14'0 0.0 1020.3 23.8
2017-Jul-21 23:30S 22°39' E 059°14'0 0.0 1020.3 23.8
2017-Jul-21 22:30S 22°39' E 059°14'1 0.3 1020.3 23.8
2017-Jul-21 17:30S 22°40' E 059°13'2 1.6 1021.4 24.0
2017-Jul-21 16:30S 22°41' E 059°14'2 1.8 1021.1 24.0
2017-Jul-21 15:30S 22°41' E 059°13'0 0.0 1020.8 24.0
2017-Jul-21 14:30S 22°41' E 059°13'1 0.6 1020.2 24.0
2017-Jul-21 13:30S 22°41' E 059°12'0 0.0 1019.7 24.0
2017-Jul-21 12:30S 22°41' E 059°12'1 0.6 1019.4 24.0
2017-Jul-21 11:30S 22°41' E 059°11'2 0.3 1018.8 24.1
2017-Jul-21 05:30S 22°41' E 059°10'1 0.8 1020.6 23.9
2017-Jul-21 04:30S 22°42' E 059°09'0 0.0 1020.2 23.9
2017-Jul-21 03:30S 22°42' E 059°09'0 0.0 1019.6 23.9
2017-Jul-21 02:30S 22°42' E 059°09'0 0.0 1019.0 23.9
2017-Jul-21 01:30S 22°42' E 059°09'1 0.6 1018.5 23.9
2017-Jul-21 00:30S 22°42' E 059°08'1 0.4 1018.2 23.9
2017-Jul-20 22:30S 22°43' E 059°08'0 0.0 1018.7 23.9
2017-Jul-20 18:30S 22°43' E 059°08'1 0.8 1019.9 23.9
2017-Jul-20 17:30S 22°43' E 059°08'1 1.2 1019.9 23.9
2017-Jul-20 16:30S 22°44' E 059°08'1 0.3 1019.8 23.9
2017-Jul-20 14:30S 22°45' E 059°08'1 1.2 1019.3 23.9
2017-Jul-20 13:30S 22°46' E 059°08'1 0.6 1018.9 23.9
2017-Jul-20 12:30S 22°46' E 059°08'2 1.6 1018.7 23.9
2017-Jul-20 11:30S 22°47' E 059°09'6 1.0 1018.5 24.0
2017-Jul-20 05:30S 22°53' E 059°08'1 1.3 1021.1 23.8
2017-Jul-20 04:30S 22°55' E 059°09'2 1.8 1020.8 23.8
2017-Jul-20 03:30S 22°56' E 059°09'1 1.3 1020.6 23.8
2017-Jul-20 02:30S 22°58' E 059°10'1 1.2 1020.4 23.7
2017-Jul-20 01:30S 22°59' E 059°10'4 1.2 1020.0 23.7
2017-Jul-19 22:30S 23°02' E 059°10'11 1.8 1020.4 23.7
2017-Jul-19 16:30S 23°13' E 059°12'3 3.0 1022.8 23.7
2017-Jul-19 15:30S 23°16' E 059°12'0 0.0 1022.1 23.7
2017-Jul-19 14:30S 23°16' E 059°12'3 3.1 1021.6 23.7
2017-Jul-19 13:30S 23°19' E 059°13'2 2.4 1021.1 23.7
2017-Jul-19 12:30S 23°22' E 059°13'2 2.4 1020.7 23.7
2017-Jul-19 11:30S 23°24' E 059°13'1 0.3 1020.6 23.6
2017-Jul-19 09:30S 23°25' E 059°13'5 1.6 1020.8 23.4
2017-Jul-19 06:30S 23°29' E 059°14'2 2.4 1022.6 23.4
2017-Jul-19 05:30S 23°31' E 059°16'1 1.3 1022.8 23.4
2017-Jul-19 04:30S 23°32' E 059°15'1 0.6 1022.6 23.4
2017-Jul-19 03:30S 23°32' E 059°16'3 2.8 1022.3 23.4
2017-Jul-19 02:30S 23°34' E 059°18'2 1.8 1022.1 23.5
2017-Jul-19 01:30S 23°36' E 059°18'2 1.9 1021.7 23.5
2017-Jul-19 00:30S 23°38' E 059°19'0 0.0 1021.6 23.5
2017-Jul-18 23:30S 23°38' E 059°19'1 1.3 1022.0 23.5
2017-Jul-18 22:30S 23°39' E 059°19'6 1.6 1022.1 23.5
2017-Jul-18 18:30S 23°43' E 059°25'0 0.0 1023.3 23.4
2017-Jul-18 17:30S 23°43' E 059°25'5 1.7 1023.3 23.4
2017-Jul-18 14:30S 23°46' E 059°29'0 0.0 1022.3 23.5
2017-Jul-18 13:30S 23°46' E 059°29'3 1.4 1022.3 23.5
2017-Jul-18 11:30S 23°47' E 059°32'2 2.1 1021.6 23.6
2017-Jul-18 10:30S 23°49' E 059°33'0 0.0 1021.4 23.6
2017-Jul-18 09:30S 23°49' E 059°33'6 1.4 1021.3 23.6
2017-Jul-18 05:30S 23°52' E 059°38'0 0.0 1023.3 23.5
2017-Jul-18 04:30S 23°52' E 059°38'2 1.2 1022.7 23.4
2017-Jul-18 02:30S 23°55' E 059°39'0 0.0 1021.6 23.3
2017-Jul-18 01:30S 23°55' E 059°39'0 0.0 1021.0 23.3
2017-Jul-18 00:30S 23°55' E 059°39'1 0.8 1020.5 23.3
2017-Jul-17 23:30S 23°55' E 059°40'1 0.4 1020.5 23.3
2017-Jul-17 21:30S 23°56' E 059°40'2 0.8 1020.4 23.3
2017-Jul-17 18:30S 23°58' E 059°40'0 0.0 1021.3 23.4
2017-Jul-17 17:30S 23°58' E 059°40'1 0.8 1021.1 23.4
2017-Jul-17 16:30S 23°59' E 059°41'0 0.0 1021.1 23.4
2017-Jul-17 15:30S 23°59' E 059°41'0 0.0 1020.9 23.4
2017-Jul-17 14:30S 23°59' E 059°41'1 0.5 1020.8 23.4
2017-Jul-17 13:30S 23°59' E 059°41'1 0.6 1020.6 23.5
2017-Jul-17 12:30S 23°58' E 059°41'1 1.1 1020.2 23.5
2017-Jul-17 11:30S 23°58' E 059°43'0 0.0 1020.1 23.5
2017-Jul-17 10:30S 23°58' E 059°43'3 0.7 1020.2 23.5
2017-Jul-17 05:30S 23°58' E 059°46'2 0.8 1022.9 23.2
2017-Jul-17 03:30S 23°58' E 059°48'1 0.5 1022.2 23.2
2017-Jul-17 02:30S 23°58' E 059°49'1 0.5 1021.9 23.2
2017-Jul-17 01:30S 23°58' E 059°49'1 0.4 1021.6 23.2
2017-Jul-16 23:30S 23°58' E 059°50'2 0.8 1021.7 23.2
2017-Jul-16 21:30S 23°58' E 059°52'4 0.9 1022.2 23.1
2017-Jul-16 17:30S 23°59' E 059°55'0 0.0 1022.9 23.2
2017-Jul-16 15:30S 23°59' E 059°55'1 1.2 1022.5 22.9
2017-Jul-16 14:30S 24°00' E 059°56'0 0.0 1022.1 22.9
2017-Jul-16 13:30S 24°00' E 059°56'1 1.1 1022.1 22.9
2017-Jul-16 12:30S 24°00' E 059°58'1 0.5 1021.9 22.9
2017-Jul-16 11:30S 24°00' E 059°58'0 0.0 1021.9 22.9
2017-Jul-16 10:30S 24°00' E 059°58'3 0.6 1022.0 22.9
2017-Jul-16 05:30S 23°59' E 060°01'2 1.1 1024.5 22.9
2017-Jul-16 03:30S 24°00' E 060°04'1 1.1 1023.8 22.8
2017-Jul-16 02:30S 24°00' E 060°05'1 0.5 1023.2 22.8
2017-Jul-16 01:30S 24°00' E 060°05'1 1.1 1023.1 22.9
2017-Jul-16 00:30S 24°00' E 060°07'1 0.6 1023.1 22.9
2017-Jul-15 23:30S 24°01' E 060°07'4 1.8 1022.8 22.8
2017-Jul-15 21:30S 24°02' E 060°10'1 0.2 1023.9 22.8
2017-Jul-15 18:30S 24°02' E 060°11'   1024.3 22.8

Dump ship's entire track history